Time;durP1;ratioP1;P1;durP2;ratioP2;P2;SDS_P1;SDS_P2;PMS_P1;PMS_P2;Temp;Humidity;BMP_temperature;BMP_pressure;BME280_temperature;BME280_humidity;BME280_pressure;Samples;Min_cycle;Max_cycle;Signal;HPM_P1;HPM_P2
2022/07/23 00:02:39;;;;;;;9.73;8.77;;;;;;;;;;10377516;28;20037;-75
2022/07/23 00:07:39;;;;;;;9.57;8.57;;;;;;;;;;10389798;28;20042;-74
2022/07/23 00:12:40;;;;;;;11.48;9.45;;;;;;;;;;10370968;28;20636;-74
2022/07/23 00:17:40;;;;;;;11.30;9.77;;;;;;;;;;10383248;28;20061;-74
2022/07/23 00:22:47;;;;;;;12.07;9.97;;;;;;;;;;10390806;28;20272;-74
2022/07/23 00:27:47;;;;;;;10.88;9.73;;;;;;;;;;10386531;28;20072;-75
2022/07/23 00:32:48;;;;;;;10.53;9.53;;;;;;;;;;10386612;28;20049;-74
2022/07/23 00:37:49;;;;;;;11.80;9.57;;;;;;;;;;10394006;28;20056;-74
2022/07/23 00:42:49;;;;;;;10.40;9.40;;;;;;;;;;10388402;28;20044;-75
2022/07/23 00:47:50;;;;;;;11.10;10.00;;;;;;;;;;10385631;28;20288;-75
2022/07/23 00:52:51;;;;;;;11.30;9.60;;;;;;;;;;10393623;28;21102;-75
2022/07/23 00:57:52;;;;;;;11.80;9.87;;;;;;;;;;10384712;28;20288;-75
2022/07/23 01:02:53;;;;;;;11.68;9.93;;;;;;;;;;10385206;28;20481;-75
2022/07/23 01:07:53;;;;;;;11.25;9.95;;;;;;;;;;10376830;28;20056;-74
2022/07/23 01:12:54;;;;;;;11.43;10.32;;;;;;;;;;10386109;28;20425;-73
2022/07/23 01:17:54;;;;;;;11.27;10.18;;;;;;;;;;10389730;28;20057;-76
2022/07/23 01:22:55;;;;;;;11.25;9.90;;;;;;;;;;10387308;28;20130;-74
2022/07/23 01:27:56;;;;;;;10.88;9.82;;;;;;;;;;10370321;28;20050;-74
2022/07/23 01:32:57;;;;;;;10.88;9.77;;;;;;;;;;10381191;28;20778;-75
2022/07/23 01:37:58;;;;;;;12.02;10.02;;;;;;;;;;10394792;28;20067;-75
2022/07/23 01:42:59;;;;;;;11.80;10.38;;;;;;;;;;10388679;28;20100;-75
2022/07/23 01:47:59;;;;;;;10.68;9.60;;;;;;;;;;10379537;28;20481;-74
2022/07/23 01:53:00;;;;;;;11.52;10.43;;;;;;;;;;10386451;28;20052;-75
2022/07/23 01:58:01;;;;;;;12.88;10.63;;;;;;;;;;10377138;28;20060;-75
2022/07/23 02:03:03;;;;;;;;;;;;;;;;;;10387535;28;20057;-74
2022/07/23 02:08:03;;;;;;;14.77;12.10;;;;;;;;;;10378073;28;19932;-74
2022/07/23 02:13:08;;;;;;;14.02;12.02;;;;;;;;;;10383891;28;20920;-74
2022/07/23 02:18:09;;;;;;;13.35;11.95;;;;;;;;;;10376020;28;20053;-75
2022/07/23 02:23:09;;;;;;;13.93;12.53;;;;;;;;;;10386605;28;20052;-75
2022/07/23 02:28:10;;;;;;;13.10;11.80;;;;;;;;;;10383793;28;20076;-76
2022/07/23 02:33:10;;;;;;;13.60;12.20;;;;;;;;;;10375534;28;20441;-75
2022/07/23 02:38:12;;;;;;;12.65;11.35;;;;;;;;;;10377147;28;20137;-75
2022/07/23 02:43:13;;;;;;;14.20;12.07;;;;;;;;;;10381786;28;20176;-75
2022/07/23 02:48:13;;;;;;;13.75;11.30;;;;;;;;;;10388847;28;20061;-77
2022/07/23 02:53:17;;;;;;;12.98;11.73;;;;;;;;;;10367835;28;20054;-74
2022/07/23 02:58:17;;;;;;;12.87;11.07;;;;;;;;;;10367730;28;20080;-76
2022/07/23 03:03:18;;;;;;;13.55;12.13;;;;;;;;;;10376758;28;20288;-76
2022/07/23 03:08:18;;;;;;;13.33;11.93;;;;;;;;;;10390028;28;20123;-75
2022/07/23 03:13:23;;;;;;;15.55;12.52;;;;;;;;;;10385943;28;20683;-75
2022/07/23 03:18:24;;;;;;;13.17;11.87;;;;;;;;;;10372811;28;20105;-74
2022/07/23 03:23:24;;;;;;;13.43;12.03;;;;;;;;;;10382223;28;20712;-74
2022/07/23 03:28:25;;;;;;;14.52;12.32;;;;;;;;;;10375443;28;20273;-75
2022/07/23 03:33:25;;;;;;;14.52;13.02;;;;;;;;;;10389686;28;20049;-75
2022/07/23 03:38:27;;;;;;;13.73;11.43;;;;;;;;;;10385879;28;20049;-74
2022/07/23 03:43:28;;;;;;;13.75;12.25;;;;;;;;;;10396372;28;20096;-74
2022/07/23 03:48:28;;;;;;;14.90;12.63;;;;;;;;;;10382446;28;20084;-74
2022/07/23 03:53:29;;;;;;;15.90;13.33;;;;;;;;;;10385280;28;20048;-74
2022/07/23 03:58:29;;;;;;;15.03;13.43;;;;;;;;;;10373458;28;20280;-75
2022/07/23 04:03:29;;;;;;;15.43;13.30;;;;;;;;;;10375593;28;20056;-74
2022/07/23 04:08:30;;;;;;;13.90;12.50;;;;;;;;;;10375643;28;20050;-75
2022/07/23 04:13:32;;;;;;;13.13;11.75;;;;;;;;;;10359828;28;20049;-73
2022/07/23 04:18:34;;;;;;;;;;;;;;;;;;10388014;28;20108;-75
2022/07/23 04:23:41;;;;;;;13.98;12.48;;;;;;;;;;10381694;28;20431;-76
2022/07/23 04:28:42;;;;;;;14.10;12.63;;;;;;;;;;10384737;28;20120;-75
2022/07/23 04:33:42;;;;;;;14.65;12.43;;;;;;;;;;10378466;28;20128;-74
2022/07/23 04:38:44;;;;;;;13.65;12.25;;;;;;;;;;10383748;28;20127;-74
2022/07/23 04:43:44;;;;;;;13.77;12.30;;;;;;;;;;10386140;28;20099;-74
2022/07/23 04:48:45;;;;;;;14.52;12.98;;;;;;;;;;10377130;28;20498;-74
2022/07/23 04:53:45;;;;;;;13.30;12.00;;;;;;;;;;10387216;28;20134;-74
2022/07/23 04:58:46;;;;;;;13.57;11.65;;;;;;;;;;10401631;28;20064;-76
2022/07/23 05:03:48;;;;;;;12.03;10.77;;;;;;;;;;10395397;28;20195;-76
2022/07/23 05:08:49;;;;;;;;;;;;;;;;;;10393484;28;20277;-74
2022/07/23 05:13:49;;;;;;;12.20;10.90;;;;;;;;;;10385034;28;19976;-74
2022/07/23 05:18:49;;;;;;;13.48;11.57;;;;;;;;;;10387164;28;20413;-75
2022/07/23 05:23:50;;;;;;;12.60;11.30;;;;;;;;;;10371096;28;20050;-75
2022/07/23 05:28:51;;;;;;;12.98;11.23;;;;;;;;;;10376530;28;20041;-75
2022/07/23 05:33:54;;;;;;;12.25;10.95;;;;;;;;;;10373836;28;20046;-75
2022/07/23 05:38:54;;;;;;;11.85;10.52;;;;;;;;;;10384549;28;20058;-74
2022/07/23 05:43:55;;;;;;;12.73;11.20;;;;;;;;;;10379630;28;20053;-75
2022/07/23 05:48:56;;;;;;;11.23;10.13;;;;;;;;;;10390800;28;20097;-75
2022/07/23 05:54:14;;;;;;;10.43;9.25;;;;;;;;;;10379283;28;20050;-76
2022/07/23 05:59:15;;;;;;;9.77;8.75;;;;;;;;;;10379907;28;20057;-76
2022/07/23 06:04:15;;;;;;;8.43;7.63;;;;;;;;;;10382786;28;20050;-75
2022/07/23 06:09:26;;;;;;;8.52;7.00;;;;;;;;;;10373118;28;20524;-76
2022/07/23 06:14:27;;;;;;;7.80;7.00;;;;;;;;;;10386381;28;20056;-76
2022/07/23 06:19:30;;;;;;;7.95;7.15;;;;;;;;;;10372648;28;20327;-76
2022/07/23 06:24:31;;;;;;;8.40;7.20;;;;;;;;;;10403071;28;20591;-75
2022/07/23 06:29:32;;;;;;;7.88;6.88;;;;;;;;;;10404290;28;20513;-76
2022/07/23 06:34:32;;;;;;;7.00;6.30;;;;;;;;;;10402012;28;20111;-75
2022/07/23 06:39:33;;;;;;;6.00;5.50;;;;;;;;;;10386407;28;20706;-76
2022/07/23 06:44:33;;;;;;;7.05;5.75;;;;;;;;;;10388895;28;20121;-76
2022/07/23 06:49:34;;;;;;;6.93;5.82;;;;;;;;;;10384153;28;20113;-74
2022/07/23 06:54:34;;;;;;;7.55;5.80;;;;;;;;;;10404353;28;20150;-75
2022/07/23 06:59:38;;;;;;;7.30;6.60;;;;;;;;;;10395157;28;20049;-75
2022/07/23 07:04:39;;;;;;;8.48;7.32;;;;;;;;;;10358429;28;20137;-78
2022/07/23 07:09:39;;;;;;;8.60;7.80;;;;;;;;;;10386286;28;20045;-78
2022/07/23 07:14:39;;;;;;;8.23;7.43;;;;;;;;;;10391013;28;20476;-77
2022/07/23 07:19:40;;;;;;;8.27;7.27;;;;;;;;;;10390611;28;20536;-76
2022/07/23 07:24:40;;;;;;;10.90;7.83;;;;;;;;;;10389282;28;21026;-76
2022/07/23 07:29:40;;;;;;;8.13;7.30;;;;;;;;;;10390411;28;20408;-76
2022/07/23 07:34:41;;;;;;;8.38;7.57;;;;;;;;;;10389359;28;20055;-74
2022/07/23 07:39:41;;;;;;;9.38;8.48;;;;;;;;;;10386162;28;20067;-80
2022/07/23 07:44:42;;;;;;;8.60;7.30;;;;;;;;;;10394015;28;20053;-79
2022/07/23 07:49:43;;;;;;;8.13;7.32;;;;;;;;;;10379511;28;20360;-79
2022/07/23 07:54:43;;;;;;;9.00;8.13;;;;;;;;;;10393377;28;20042;-81
2022/07/23 07:59:44;;;;;;;9.88;8.70;;;;;;;;;;10379272;28;20295;-80
2022/07/23 08:04:44;;;;;;;9.70;8.53;;;;;;;;;;10390088;28;20168;-79
2022/07/23 08:09:45;;;;;;;11.68;8.38;;;;;;;;;;10392052;28;20276;-79
2022/07/23 08:14:45;;;;;;;9.15;8.00;;;;;;;;;;10398688;28;20042;-79
2022/07/23 08:19:46;;;;;;;11.30;8.43;;;;;;;;;;10396492;28;20072;-77
2022/07/23 08:24:46;;;;;;;12.77;9.60;;;;;;;;;;10396730;28;20049;-80
2022/07/23 08:29:46;;;;;;;11.17;9.57;;;;;;;;;;10399834;28;20057;-79
2022/07/23 08:34:47;;;;;;;11.07;9.47;;;;;;;;;;10391664;28;20045;-79
2022/07/23 08:39:47;;;;;;;11.53;8.90;;;;;;;;;;10388436;28;20050;-75
2022/07/23 08:44:47;;;;;;;12.13;10.83;;;;;;;;;;10381000;28;20077;-79
2022/07/23 08:49:48;;;;;;;12.00;10.73;;;;;;;;;;10401179;28;20074;-84
2022/07/23 08:54:48;;;;;;;13.85;10.70;;;;;;;;;;10408621;28;20277;-81
2022/07/23 08:59:49;;;;;;;13.63;9.90;;;;;;;;;;10403119;28;20065;-80
2022/07/23 09:04:49;;;;;;;13.32;10.38;;;;;;;;;;10423876;28;20046;-82
2022/07/23 09:10:04;;;;;;;13.48;11.20;;;;;;;;;;10410667;28;20042;-82
2022/07/23 09:15:06;;;;;;;15.05;13.10;;;;;;;;;;10395863;28;20058;-79
2022/07/23 09:20:10;;;;;;;17.27;13.68;;;;;;;;;;10389168;28;20066;-78
2022/07/23 09:25:15;;;;;;;14.73;12.73;;;;;;;;;;10400616;28;20049;-78
2022/07/23 09:30:15;;;;;;;12.68;10.98;;;;;;;;;;10396604;28;20083;-79
2022/07/23 09:35:16;;;;;;;14.13;12.63;;;;;;;;;;10383511;28;20128;-78
2022/07/23 09:40:17;;;;;;;13.50;12.07;;;;;;;;;;10391075;28;20665;-79
2022/07/23 09:45:18;;;;;;;14.95;13.00;;;;;;;;;;10389175;28;20042;-79
2022/07/23 09:50:19;;;;;;;13.03;11.67;;;;;;;;;;10390586;28;20188;-80
2022/07/23 09:55:34;;;;;;;16.42;13.60;;;;;;;;;;10379575;28;20086;-80
2022/07/23 10:00:35;;;;;;;13.90;11.98;;;;;;;;;;10392063;28;20058;-79
2022/07/23 10:05:37;;;;;;;14.20;12.68;;;;;;;;;;10399487;28;20065;-80
2022/07/23 10:10:56;;;;;;;13.85;10.77;;;;;;;;;;10406492;28;20145;-80
2022/07/23 10:16:02;;;;;;;13.25;11.20;;;;;;;;;;10392593;28;20129;-79
2022/07/23 10:21:06;;;;;;;14.93;11.77;;;;;;;;;;10385933;28;20149;-80
2022/07/23 10:26:12;;;;;;;12.48;11.18;;;;;;;;;;10394170;28;20058;-79
2022/07/23 10:31:18;;;;;;;14.65;12.40;;;;;;;;;;10396626;28;20041;-80
2022/07/23 10:36:20;;;;;;;14.48;12.43;;;;;;;;;;10385863;28;20133;-82
2022/07/23 10:41:31;;;;;;;13.03;11.57;;;;;;;;;;10389901;28;20104;-81
2022/07/23 10:52:09;;;;;;;17.73;13.20;;;;;;;;;;10411409;28;20049;-79
2022/07/23 10:57:11;;;;;;;13.98;11.65;;;;;;;;;;10392860;28;20069;-80
2022/07/23 11:02:20;;;;;;;14.52;11.40;;;;;;;;;;10387441;28;20061;-81
2022/07/23 11:07:21;;;;;;;15.35;12.82;;;;;;;;;;10385139;28;20507;-79
2022/07/23 11:12:24;;;;;;;15.80;12.75;;;;;;;;;;10386398;28;20096;-80
2022/07/23 11:17:25;;;;;;;14.90;13.05;;;;;;;;;;10407951;28;20081;-80
2022/07/23 11:22:54;;;;;;;15.13;13.32;;;;;;;;;;10395844;28;20098;-79
2022/07/23 11:27:55;;;;;;;14.77;11.85;;;;;;;;;;10382032;28;20076;-80
2022/07/23 11:33:08;;;;;;;13.88;12.27;;;;;;;;;;10410247;28;20049;-79
2022/07/23 11:38:11;;;;;;;13.85;11.90;;;;;;;;;;10395099;28;20527;-79
2022/07/23 11:43:12;;;;;;;13.77;11.82;;;;;;;;;;10375618;28;20513;-79
2022/07/23 11:48:20;;;;;;;14.05;11.68;;;;;;;;;;10378836;28;20420;-71
2022/07/23 11:53:23;;;;;;;13.30;11.60;;;;;;;;;;10378083;28;20045;-72
2022/07/23 11:58:23;;;;;;;11.90;10.70;;;;;;;;;;10381750;28;20111;-70
2022/07/23 12:03:24;;;;;;;12.93;10.77;;;;;;;;;;10382643;28;20054;-72
2022/07/23 12:08:24;;;;;;;11.17;9.97;;;;;;;;;;10373644;28;20049;-71
2022/07/23 12:13:24;;;;;;;13.68;10.70;;;;;;;;;;10381349;28;20073;-71
2022/07/23 12:18:26;;;;;;;12.77;10.25;;;;;;;;;;10374669;28;20208;-71
2022/07/23 12:23:26;;;;;;;12.93;10.57;;;;;;;;;;10383127;28;20046;-72
2022/07/23 12:28:28;;;;;;;12.50;10.00;;;;;;;;;;10396011;28;20050;-72
2022/07/23 12:33:30;;;;;;;12.18;10.13;;;;;;;;;;10376588;28;20060;-71
2022/07/23 12:38:56;;;;;;;11.43;10.23;;;;;;;;;;10394141;28;20063;-71
2022/07/23 12:43:56;;;;;;;10.77;9.73;;;;;;;;;;10394861;28;20406;-73
2022/07/23 12:48:57;;;;;;;10.20;9.10;;;;;;;;;;10391005;28;20057;-73
2022/07/23 12:54:04;;;;;;;9.93;9.00;;;;;;;;;;10379085;28;20046;-73
2022/07/23 12:59:11;;;;;;;9.15;8.27;;;;;;;;;;10378988;28;20061;-72
2022/07/23 13:04:11;;;;;;;9.57;8.68;;;;;;;;;;10381486;28;20041;-72
2022/07/23 13:09:13;;;;;;;9.13;7.73;;;;;;;;;;10380843;28;20049;-72
2022/07/23 13:14:14;;;;;;;10.27;8.65;;;;;;;;;;10387122;28;20378;-72
2022/07/23 13:19:15;;;;;;;10.20;9.20;;;;;;;;;;10373411;28;20143;-71
2022/07/23 13:24:17;;;;;;;10.32;8.55;;;;;;;;;;10387758;28;20069;-73
2022/07/23 13:29:18;;;;;;;8.63;7.80;;;;;;;;;;10382981;28;20063;-74
2022/07/23 13:34:18;;;;;;;9.43;8.53;;;;;;;;;;10380395;28;20045;-76
2022/07/23 13:39:19;;;;;;;9.10;8.03;;;;;;;;;;10381292;28;20092;-71
2022/07/23 13:44:19;;;;;;;9.40;8.50;;;;;;;;;;10372826;28;20054;-71
2022/07/23 13:49:19;;;;;;;9.73;8.70;;;;;;;;;;10378709;28;20112;-73
2022/07/23 13:54:20;;;;;;;9.17;8.27;;;;;;;;;;10370239;28;20058;-73
2022/07/23 13:59:20;;;;;;;8.67;7.80;;;;;;;;;;10380024;28;20062;-71
2022/07/23 14:04:21;;;;;;;8.80;8.00;;;;;;;;;;10376368;28;20054;-72
2022/07/23 14:09:21;;;;;;;8.40;7.60;;;;;;;;;;10383583;28;20438;-73
2022/07/23 14:14:22;;;;;;;8.37;7.57;;;;;;;;;;10396268;28;20040;-73
2022/07/23 14:19:22;;;;;;;9.13;8.10;;;;;;;;;;10379486;28;20054;-74
2022/07/23 14:24:23;;;;;;;8.10;7.40;;;;;;;;;;10369813;28;20539;-73
2022/07/23 14:29:23;;;;;;;7.97;7.20;;;;;;;;;;10385501;28;20052;-73
2022/07/23 14:34:24;;;;;;;9.03;8.20;;;;;;;;;;10386650;28;20049;-80
2022/07/23 14:39:25;;;;;;;8.00;7.28;;;;;;;;;;10379153;28;20111;-79
2022/07/23 14:44:25;;;;;;;8.07;7.27;;;;;;;;;;10380281;28;20061;-78
2022/07/23 14:49:27;;;;;;;8.70;7.83;;;;;;;;;;10372277;28;20046;-78
2022/07/23 14:54:27;;;;;;;6.90;6.20;;;;;;;;;;10385480;28;20124;-78
2022/07/23 14:59:28;;;;;;;8.73;6.63;;;;;;;;;;10401795;28;20136;-77
2022/07/23 15:04:28;;;;;;;9.17;8.10;;;;;;;;;;10436776;28;20049;-75
2022/07/23 15:09:28;;;;;;;7.87;7.07;;;;;;;;;;10379448;28;20045;-75
2022/07/23 15:14:29;;;;;;;7.93;6.90;;;;;;;;;;10375319;28;20050;-75
2022/07/23 15:19:29;;;;;;;7.63;6.83;;;;;;;;;;10376617;28;20076;-74
2022/07/23 15:24:30;;;;;;;8.37;7.57;;;;;;;;;;10374960;28;20038;-76
2022/07/23 15:29:30;;;;;;;9.30;7.27;;;;;;;;;;10385574;28;20045;-75
2022/07/23 15:34:31;;;;;;;7.73;7.03;;;;;;;;;;10377612;28;20050;-74
2022/07/23 15:39:34;;;;;;;8.40;7.60;;;;;;;;;;10373988;28;20093;-75
2022/07/23 15:44:35;;;;;;;8.93;7.40;;;;;;;;;;10373919;28;20046;-75
2022/07/23 15:49:35;;;;;;;8.23;7.20;;;;;;;;;;10372278;28;20464;-74
2022/07/23 15:54:37;;;;;;;8.43;7.60;;;;;;;;;;10383265;28;20061;-75
2022/07/23 15:59:37;;;;;;;10.50;7.78;;;;;;;;;;10397103;28;20115;-81
2022/07/23 16:04:37;;;;;;;10.20;7.23;;;;;;;;;;10389357;28;20939;-76
2022/07/23 16:09:38;;;;;;;8.60;7.73;;;;;;;;;;10368295;28;20073;-75
2022/07/23 16:14:38;;;;;;;7.87;7.17;;;;;;;;;;10377026;28;20060;-76
2022/07/23 16:19:39;;;;;;;7.77;7.07;;;;;;;;;;10390667;28;20760;-75
2022/07/23 16:24:40;;;;;;;9.32;8.52;;;;;;;;;;10389678;28;20111;-74
2022/07/23 16:29:40;;;;;;;8.53;7.67;;;;;;;;;;10380643;28;20522;-74
2022/07/23 16:34:41;;;;;;;8.27;7.10;;;;;;;;;;10373582;28;20536;-73
2022/07/23 16:39:41;;;;;;;9.07;7.00;;;;;;;;;;10377231;28;20084;-73
2022/07/23 16:44:41;;;;;;;8.43;7.73;;;;;;;;;;10378881;28;20125;-73
2022/07/23 16:49:42;;;;;;;8.93;7.93;;;;;;;;;;10387314;28;20528;-77
2022/07/23 16:54:42;;;;;;;8.60;7.83;;;;;;;;;;10369248;28;20056;-74
2022/07/23 16:59:43;;;;;;;8.10;7.30;;;;;;;;;;10397601;28;20057;-73
2022/07/23 17:04:43;;;;;;;8.03;7.00;;;;;;;;;;10386163;28;20056;-74
2022/07/23 17:09:44;;;;;;;7.30;6.70;;;;;;;;;;10380774;28;20076;-73
2022/07/23 17:14:44;;;;;;;7.87;7.17;;;;;;;;;;10405730;28;20069;-80
2022/07/23 17:19:44;;;;;;;7.70;7.00;;;;;;;;;;10402596;28;20057;-79
2022/07/23 17:24:45;;;;;;;7.53;6.67;;;;;;;;;;10393189;28;20068;-74
2022/07/23 17:29:45;;;;;;;12.13;7.97;;;;;;;;;;10391759;28;20052;-76
2022/07/23 17:34:46;;;;;;;11.10;7.97;;;;;;;;;;10387098;28;20054;-78
2022/07/23 17:39:46;;;;;;;7.73;7.03;;;;;;;;;;10389478;28;20061;-79
2022/07/23 17:44:47;;;;;;;8.07;7.13;;;;;;;;;;10394388;28;20642;-79
2022/07/23 17:49:51;;;;;;;8.43;6.90;;;;;;;;;;10382837;28;20049;-78
2022/07/23 17:54:58;;;;;;;7.00;6.30;;;;;;;;;;10386650;28;20115;-80
2022/07/23 18:00:00;;;;;;;7.28;6.57;;;;;;;;;;10397365;28;20076;-79
2022/07/23 18:05:00;;;;;;;7.97;6.97;;;;;;;;;;10392734;28;20869;-79
2022/07/23 18:10:01;;;;;;;6.80;6.20;;;;;;;;;;10390275;28;20049;-79
2022/07/23 18:15:01;;;;;;;9.87;6.87;;;;;;;;;;10435312;28;20041;-80
2022/07/23 18:20:06;;;;;;;7.50;6.80;;;;;;;;;;10394154;28;20058;-80
2022/07/23 18:25:08;;;;;;;8.68;6.68;;;;;;;;;;10383016;28;20049;-77
2022/07/23 18:30:09;;;;;;;7.40;6.78;;;;;;;;;;10358394;28;20050;-79
2022/07/23 18:35:09;;;;;;;7.07;6.37;;;;;;;;;;10378038;28;20042;-79
2022/07/23 18:40:10;;;;;;;6.90;6.20;;;;;;;;;;10382055;28;20064;-79
2022/07/23 18:45:10;;;;;;;7.77;6.93;;;;;;;;;;10377524;28;20379;-78
2022/07/23 18:50:12;;;;;;;9.57;8.57;;;;;;;;;;10382179;28;20053;-79
2022/07/23 18:55:12;;;;;;;8.65;7.70;;;;;;;;;;10391913;28;20045;-78
2022/07/23 19:00:14;;;;;;;8.60;7.70;;;;;;;;;;10390256;28;20054;-78
2022/07/23 19:05:14;;;;;;;8.43;7.47;;;;;;;;;;10362322;28;20049;-78
2022/07/23 19:10:15;;;;;;;8.32;7.53;;;;;;;;;;10378619;28;20056;-77
2022/07/23 19:15:15;;;;;;;8.33;7.50;;;;;;;;;;10385361;28;20042;-78
2022/07/23 19:20:15;;;;;;;9.33;8.43;;;;;;;;;;10373521;28;20073;-77
2022/07/23 19:25:16;;;;;;;9.77;8.88;;;;;;;;;;10372816;28;20037;-79
2022/07/23 19:30:16;;;;;;;10.15;9.15;;;;;;;;;;10380851;28;20052;-79
2022/07/23 19:35:16;;;;;;;9.97;9.00;;;;;;;;;;10381988;28;20076;-80
2022/07/23 19:40:17;;;;;;;10.17;9.17;;;;;;;;;;10391940;28;20297;-78
2022/07/23 19:45:17;;;;;;;10.27;9.27;;;;;;;;;;10375438;28;20098;-79
2022/07/23 19:50:18;;;;;;;10.23;9.23;;;;;;;;;;10381928;28;20364;-80
2022/07/23 19:55:18;;;;;;;10.10;9.05;;;;;;;;;;10391419;28;20053;-79
2022/07/23 20:00:19;;;;;;;9.03;8.13;;;;;;;;;;10397463;28;20062;-79
2022/07/23 20:05:20;;;;;;;10.38;9.38;;;;;;;;;;10398881;28;20330;-80
2022/07/23 20:10:21;;;;;;;11.40;10.20;;;;;;;;;;10411101;28;20081;-81
2022/07/23 20:15:21;;;;;;;12.57;9.77;;;;;;;;;;10407439;28;20472;-79
2022/07/23 20:20:22;;;;;;;10.98;9.88;;;;;;;;;;10403345;28;20129;-79
2022/07/23 20:25:22;;;;;;;10.67;9.57;;;;;;;;;;10399216;28;20100;-79
2022/07/23 20:30:24;;;;;;;11.77;10.57;;;;;;;;;;10388094;28;20281;-79
2022/07/23 20:35:27;;;;;;;11.95;10.75;;;;;;;;;;10394420;28;20353;-80
2022/07/23 20:40:28;;;;;;;;;;;;;;;;;;10384397;28;20081;-79
2022/07/23 20:45:29;;;;;;;12.50;11.30;;;;;;;;;;10388557;28;20383;-81
2022/07/23 20:50:29;;;;;;;13.65;12.02;;;;;;;;;;10394075;28;20167;-80
2022/07/23 20:55:32;;;;;;;12.50;11.30;;;;;;;;;;10390277;28;20042;-79
2022/07/23 21:00:33;;;;;;;12.55;11.27;;;;;;;;;;10389981;28;20868;-80
2022/07/23 21:05:35;;;;;;;13.77;12.07;;;;;;;;;;10403773;28;20045;-79
2022/07/23 21:10:37;;;;;;;14.63;12.70;;;;;;;;;;10387574;28;20130;-78
2022/07/23 21:15:37;;;;;;;13.55;12.15;;;;;;;;;;10378006;28;20101;-78
2022/07/23 21:25:57;;;;;;;13.20;11.80;;;;;;;;;;10383021;28;20100;-78
2022/07/23 21:30:58;;;;;;;15.30;13.18;;;;;;;;;;10384887;28;20132;-77
2022/07/23 21:35:59;;;;;;;14.18;12.65;;;;;;;;;;10384932;28;20161;-82
2022/07/23 21:40:59;;;;;;;13.85;12.43;;;;;;;;;;10381166;28;20111;-79
2022/07/23 21:46:00;;;;;;;15.27;13.67;;;;;;;;;;10377010;28;20512;-77
2022/07/23 21:51:01;;;;;;;16.08;13.98;;;;;;;;;;10387774;28;20387;-79
2022/07/23 21:56:01;;;;;;;14.30;12.80;;;;;;;;;;10391980;28;20355;-78
2022/07/23 22:01:05;;;;;;;14.52;13.00;;;;;;;;;;10384993;28;20052;-77
2022/07/23 22:06:06;;;;;;;15.03;12.90;;;;;;;;;;10405234;28;20048;-78
2022/07/23 22:11:06;;;;;;;16.05;14.32;;;;;;;;;;10426662;28;20391;-78
2022/07/23 22:16:06;;;;;;;14.33;12.90;;;;;;;;;;10362787;28;20038;-78
2022/07/23 22:21:07;;;;;;;13.83;12.53;;;;;;;;;;10383660;28;20379;-78
2022/07/23 22:26:07;;;;;;;15.83;14.23;;;;;;;;;;10380236;28;20609;-79
2022/07/23 22:31:08;;;;;;;15.50;13.98;;;;;;;;;;10379354;28;20442;-80
2022/07/23 22:36:09;;;;;;;14.43;12.88;;;;;;;;;;10384231;28;20457;-77
2022/07/23 22:41:09;;;;;;;13.80;12.30;;;;;;;;;;10378145;28;20058;-78
2022/07/23 22:46:11;;;;;;;13.40;11.37;;;;;;;;;;10375772;28;20276;-78
2022/07/23 22:51:11;;;;;;;13.27;11.80;;;;;;;;;;10374745;28;20444;-78
2022/07/23 22:56:12;;;;;;;15.63;14.03;;;;;;;;;;10383223;28;20145;-78
2022/07/23 23:01:12;;;;;;;14.37;12.87;;;;;;;;;;10375781;28;20059;-77
2022/07/23 23:06:12;;;;;;;14.87;13.33;;;;;;;;;;10381755;28;20296;-76
2022/07/23 23:11:13;;;;;;;13.77;12.43;;;;;;;;;;10373251;28;20057;-77
2022/07/23 23:16:13;;;;;;;14.87;12.90;;;;;;;;;;10385795;28;20284;-76
2022/07/23 23:21:13;;;;;;;13.27;11.97;;;;;;;;;;10381152;28;20065;-76
2022/07/23 23:26:14;;;;;;;13.67;12.27;;;;;;;;;;10373030;28;20048;-76
2022/07/23 23:31:15;;;;;;;12.67;11.50;;;;;;;;;;10376035;28;20057;-75
2022/07/23 23:36:15;;;;;;;12.60;11.40;;;;;;;;;;10374121;28;20407;-75
2022/07/23 23:41:16;;;;;;;14.27;12.88;;;;;;;;;;10380506;28;20490;-76
2022/07/23 23:46:16;;;;;;;16.13;13.30;;;;;;;;;;10372010;28;20045;-75
2022/07/23 23:51:16;;;;;;;14.20;12.80;;;;;;;;;;10381147;28;20041;-74
2022/07/23 23:56:16;;;;;;;14.77;12.97;;;;;;;;;;10387533;28;20068;-76
